sensor_id;sensor_type;location;lat;lon;timestamp;temperature;humidity
16995;DHT22;8614;48.522;9.206;2022-09-12T00:01:14;11.80;99.90
16995;DHT22;8614;48.522;9.206;2022-09-12T00:03:41;11.80;99.90
16995;DHT22;8614;48.522;9.206;2022-09-12T00:06:10;11.80;99.90
16995;DHT22;8614;48.522;9.206;2022-09-12T00:08:38;11.80;99.90
16995;DHT22;8614;48.522;9.206;2022-09-12T00:11:07;11.70;99.90
16995;DHT22;8614;48.522;9.206;2022-09-12T00:13:34;11.70;99.90
16995;DHT22;8614;48.522;9.206;2022-09-12T00:16:01;11.70;99.90
16995;DHT22;8614;48.522;9.206;2022-09-12T00:18:30;11.60;99.90
16995;DHT22;8614;48.522;9.206;2022-09-12T00:21:01;11.60;99.90
16995;DHT22;8614;48.522;9.206;2022-09-12T00:23:29;11.60;99.90
16995;DHT22;8614;48.522;9.206;2022-09-12T00:25:56;11.60;99.90
16995;DHT22;8614;48.522;9.206;2022-09-12T00:28:22;11.50;99.90
16995;DHT22;8614;48.522;9.206;2022-09-12T00:30:49;11.50;99.90
16995;DHT22;8614;48.522;9.206;2022-09-12T00:33:17;11.40;99.90
16995;DHT22;8614;48.522;9.206;2022-09-12T00:35:46;11.40;99.90
16995;DHT22;8614;48.522;9.206;2022-09-12T00:38:14;11.40;99.90
16995;DHT22;8614;48.522;9.206;2022-09-12T00:40:42;11.40;99.90
16995;DHT22;8614;48.522;9.206;2022-09-12T00:43:12;11.40;99.90
16995;DHT22;8614;48.522;9.206;2022-09-12T00:45:40;11.40;99.90
16995;DHT22;8614;48.522;9.206;2022-09-12T00:48:15;11.40;99.90
16995;DHT22;8614;48.522;9.206;2022-09-12T00:50:42;11.30;99.90
16995;DHT22;8614;48.522;9.206;2022-09-12T00:53:10;11.30;99.90
16995;DHT22;8614;48.522;9.206;2022-09-12T00:55:39;11.30;99.90
16995;DHT22;8614;48.522;9.206;2022-09-12T00:58:09;11.30;99.90
16995;DHT22;8614;48.522;9.206;2022-09-12T01:00:38;11.30;99.90
16995;DHT22;8614;48.522;9.206;2022-09-12T01:03:07;11.40;99.90
16995;DHT22;8614;48.522;9.206;2022-09-12T01:05:39;11.40;99.90
16995;DHT22;8614;48.522;9.206;2022-09-12T01:08:08;11.40;99.90
16995;DHT22;8614;48.522;9.206;2022-09-12T01:10:37;11.30;99.90
16995;DHT22;8614;48.522;9.206;2022-09-12T01:13:07;11.20;99.90
16995;DHT22;8614;48.522;9.206;2022-09-12T01:15:36;11.20;99.90
16995;DHT22;8614;48.522;9.206;2022-09-12T01:18:10;11.20;99.90
16995;DHT22;8614;48.522;9.206;2022-09-12T01:24:13;11.10;99.90
16995;DHT22;8614;48.522;9.206;2022-09-12T01:35:42;11.00;99.90
16995;DHT22;8614;48.522;9.206;2022-09-12T01:38:18;11.10;99.90
16995;DHT22;8614;48.522;9.206;2022-09-12T01:40:55;11.10;99.90
16995;DHT22;8614;48.522;9.206;2022-09-12T01:43:30;11.10;99.90
16995;DHT22;8614;48.522;9.206;2022-09-12T01:46:05;11.10;99.90
16995;DHT22;8614;48.522;9.206;2022-09-12T01:48:38;11.00;99.90
16995;DHT22;8614;48.522;9.206;2022-09-12T01:51:10;11.00;99.90
16995;DHT22;8614;48.522;9.206;2022-09-12T01:53:43;11.00;99.90
16995;DHT22;8614;48.522;9.206;2022-09-12T01:56:15;11.00;99.90
16995;DHT22;8614;48.522;9.206;2022-09-12T01:58:49;11.10;99.90
16995;DHT22;8614;48.522;9.206;2022-09-12T02:01:21;11.00;99.90
16995;DHT22;8614;48.522;9.206;2022-09-12T02:03:53;11.00;99.90
16995;DHT22;8614;48.522;9.206;2022-09-12T02:06:26;10.90;99.90
16995;DHT22;8614;48.522;9.206;2022-09-12T02:08:58;10.90;99.90
16995;DHT22;8614;48.522;9.206;2022-09-12T02:11:27;10.80;99.90
16995;DHT22;8614;48.522;9.206;2022-09-12T02:13:59;10.80;99.90
16995;DHT22;8614;48.522;9.206;2022-09-12T02:16:31;10.70;99.90
16995;DHT22;8614;48.522;9.206;2022-09-12T02:19:07;10.70;99.90
16995;DHT22;8614;48.522;9.206;2022-09-12T02:21:37;10.70;99.90
16995;DHT22;8614;48.522;9.206;2022-09-12T02:24:07;10.70;99.90
16995;DHT22;8614;48.522;9.206;2022-09-12T02:26:40;10.70;99.90
16995;DHT22;8614;48.522;9.206;2022-09-12T02:29:09;10.70;99.90
16995;DHT22;8614;48.522;9.206;2022-09-12T02:31:40;10.70;99.90
16995;DHT22;8614;48.522;9.206;2022-09-12T02:34:21;10.80;99.90
16995;DHT22;8614;48.522;9.206;2022-09-12T02:36:58;10.90;99.90
16995;DHT22;8614;48.522;9.206;2022-09-12T02:39:28;11.00;99.90
16995;DHT22;8614;48.522;9.206;2022-09-12T02:41:56;11.10;99.90
16995;DHT22;8614;48.522;9.206;2022-09-12T02:44:26;11.20;99.90
16995;DHT22;8614;48.522;9.206;2022-09-12T02:46:55;11.20;99.90
16995;DHT22;8614;48.522;9.206;2022-09-12T02:49:25;11.20;99.90
16995;DHT22;8614;48.522;9.206;2022-09-12T02:51:52;11.10;99.90
16995;DHT22;8614;48.522;9.206;2022-09-12T02:54:20;11.10;99.90
16995;DHT22;8614;48.522;9.206;2022-09-12T02:56:47;11.20;99.90
16995;DHT22;8614;48.522;9.206;2022-09-12T02:59:17;11.20;99.90
16995;DHT22;8614;48.522;9.206;2022-09-12T03:05:08;11.10;99.90
16995;DHT22;8614;48.522;9.206;2022-09-12T03:08:06;11.10;99.90
16995;DHT22;8614;48.522;9.206;2022-09-12T03:10:46;11.10;99.90
16995;DHT22;8614;48.522;9.206;2022-09-12T03:13:20;11.10;99.90
16995;DHT22;8614;48.522;9.206;2022-09-12T03:15:57;11.10;99.90
16995;DHT22;8614;48.522;9.206;2022-09-12T03:18:39;11.10;99.90
16995;DHT22;8614;48.522;9.206;2022-09-12T03:21:13;11.10;99.90
16995;DHT22;8614;48.522;9.206;2022-09-12T03:23:48;11.10;99.90
16995;DHT22;8614;48.522;9.206;2022-09-12T03:26:24;11.10;99.90
16995;DHT22;8614;48.522;9.206;2022-09-12T03:28:53;11.10;99.90
16995;DHT22;8614;48.522;9.206;2022-09-12T03:31:21;11.10;99.90
16995;DHT22;8614;48.522;9.206;2022-09-12T03:33:48;11.10;99.90
16995;DHT22;8614;48.522;9.206;2022-09-12T03:36:19;11.10;99.90
16995;DHT22;8614;48.522;9.206;2022-09-12T03:38:47;11.10;99.90
16995;DHT22;8614;48.522;9.206;2022-09-12T03:41:14;11.10;99.90
16995;DHT22;8614;48.522;9.206;2022-09-12T03:43:42;11.10;99.90
16995;DHT22;8614;48.522;9.206;2022-09-12T03:46:09;11.20;99.90
16995;DHT22;8614;48.522;9.206;2022-09-12T03:48:36;11.20;99.90
16995;DHT22;8614;48.522;9.206;2022-09-12T03:51:05;11.30;99.90
16995;DHT22;8614;48.522;9.206;2022-09-12T03:53:33;11.20;99.90
16995;DHT22;8614;48.522;9.206;2022-09-12T03:56:05;11.10;99.90
16995;DHT22;8614;48.522;9.206;2022-09-12T03:58:32;11.00;99.90
16995;DHT22;8614;48.522;9.206;2022-09-12T04:01:05;11.00;99.90
16995;DHT22;8614;48.522;9.206;2022-09-12T04:03:32;10.90;99.90
16995;DHT22;8614;48.522;9.206;2022-09-12T04:05:59;10.80;99.90
16995;DHT22;8614;48.522;9.206;2022-09-12T04:08:25;10.80;99.90
16995;DHT22;8614;48.522;9.206;2022-09-12T04:11:01;10.80;99.90
16995;DHT22;8614;48.522;9.206;2022-09-12T04:13:28;10.90;99.90
16995;DHT22;8614;48.522;9.206;2022-09-12T04:15:55;10.90;99.90
16995;DHT22;8614;48.522;9.206;2022-09-12T04:18:22;11.00;99.90
16995;DHT22;8614;48.522;9.206;2022-09-12T04:20:49;11.10;99.90
16995;DHT22;8614;48.522;9.206;2022-09-12T04:23:16;11.10;99.90
16995;DHT22;8614;48.522;9.206;2022-09-12T04:25:43;11.10;99.90
16995;DHT22;8614;48.522;9.206;2022-09-12T04:28:11;11.10;99.90
16995;DHT22;8614;48.522;9.206;2022-09-12T04:30:38;11.10;99.90
16995;DHT22;8614;48.522;9.206;2022-09-12T04:33:05;11.10;99.90
16995;DHT22;8614;48.522;9.206;2022-09-12T04:35:33;11.10;99.90
16995;DHT22;8614;48.522;9.206;2022-09-12T04:38:00;11.20;99.90
16995;DHT22;8614;48.522;9.206;2022-09-12T04:40:28;11.20;99.90
16995;DHT22;8614;48.522;9.206;2022-09-12T04:42:56;11.20;99.90
16995;DHT22;8614;48.522;9.206;2022-09-12T04:45:24;11.20;99.90
16995;DHT22;8614;48.522;9.206;2022-09-12T04:47:51;11.20;99.90
16995;DHT22;8614;48.522;9.206;2022-09-12T04:50:18;11.20;99.90
16995;DHT22;8614;48.522;9.206;2022-09-12T04:52:48;11.30;99.90
16995;DHT22;8614;48.522;9.206;2022-09-12T04:55:15;11.20;99.90
16995;DHT22;8614;48.522;9.206;2022-09-12T04:57:42;11.30;99.90
16995;DHT22;8614;48.522;9.206;2022-09-12T05:00:10;11.30;99.90
16995;DHT22;8614;48.522;9.206;2022-09-12T05:02:40;11.20;99.90
16995;DHT22;8614;48.522;9.206;2022-09-12T05:05:08;11.30;99.90
16995;DHT22;8614;48.522;9.206;2022-09-12T05:07:36;11.30;99.90
16995;DHT22;8614;48.522;9.206;2022-09-12T05:10:03;11.30;99.90
16995;DHT22;8614;48.522;9.206;2022-09-12T05:12:30;11.20;99.90
16995;DHT22;8614;48.522;9.206;2022-09-12T05:14:57;11.10;99.90
16995;DHT22;8614;48.522;9.206;2022-09-12T05:17:23;11.10;99.90
16995;DHT22;8614;48.522;9.206;2022-09-12T05:19:52;11.00;99.90
16995;DHT22;8614;48.522;9.206;2022-09-12T05:22:18;11.00;99.90
16995;DHT22;8614;48.522;9.206;2022-09-12T05:24:45;11.00;99.90
16995;DHT22;8614;48.522;9.206;2022-09-12T05:27:13;11.00;99.90
16995;DHT22;8614;48.522;9.206;2022-09-12T05:29:40;11.10;99.90
16995;DHT22;8614;48.522;9.206;2022-09-12T05:32:07;11.10;99.90
16995;DHT22;8614;48.522;9.206;2022-09-12T05:34:34;11.20;99.90
16995;DHT22;8614;48.522;9.206;2022-09-12T05:37:03;11.30;99.90
16995;DHT22;8614;48.522;9.206;2022-09-12T05:39:30;11.40;99.90
16995;DHT22;8614;48.522;9.206;2022-09-12T05:41:57;11.30;99.90
16995;DHT22;8614;48.522;9.206;2022-09-12T05:44:24;11.40;99.90
16995;DHT22;8614;48.522;9.206;2022-09-12T05:46:51;11.40;99.90
16995;DHT22;8614;48.522;9.206;2022-09-12T05:49:18;11.60;99.90
16995;DHT22;8614;48.522;9.206;2022-09-12T05:51:45;11.70;99.90
16995;DHT22;8614;48.522;9.206;2022-09-12T05:54:15;11.80;99.90
16995;DHT22;8614;48.522;9.206;2022-09-12T05:56:44;12.00;99.90
16995;DHT22;8614;48.522;9.206;2022-09-12T05:59:12;12.10;99.90
16995;DHT22;8614;48.522;9.206;2022-09-12T06:01:39;12.10;99.90
16995;DHT22;8614;48.522;9.206;2022-09-12T06:04:06;12.20;99.90
16995;DHT22;8614;48.522;9.206;2022-09-12T06:06:36;12.20;99.90
16995;DHT22;8614;48.522;9.206;2022-09-12T06:09:04;12.20;99.90
16995;DHT22;8614;48.522;9.206;2022-09-12T06:11:34;12.20;99.90
16995;DHT22;8614;48.522;9.206;2022-09-12T06:14:02;12.20;99.90
16995;DHT22;8614;48.522;9.206;2022-09-12T06:16:30;12.20;99.90
16995;DHT22;8614;48.522;9.206;2022-09-12T06:18:58;12.30;99.90
16995;DHT22;8614;48.522;9.206;2022-09-12T06:21:26;12.30;99.90
16995;DHT22;8614;48.522;9.206;2022-09-12T06:23:55;12.30;99.90
16995;DHT22;8614;48.522;9.206;2022-09-12T06:26:23;12.40;99.90
16995;DHT22;8614;48.522;9.206;2022-09-12T06:28:53;12.60;99.90
16995;DHT22;8614;48.522;9.206;2022-09-12T06:31:22;12.80;99.90
16995;DHT22;8614;48.522;9.206;2022-09-12T06:33:52;13.00;99.90
16995;DHT22;8614;48.522;9.206;2022-09-12T06:36:21;13.20;99.90
16995;DHT22;8614;48.522;9.206;2022-09-12T06:38:53;13.20;99.90
16995;DHT22;8614;48.522;9.206;2022-09-12T06:41:20;13.20;99.90
16995;DHT22;8614;48.522;9.206;2022-09-12T06:43:47;13.20;99.90
16995;DHT22;8614;48.522;9.206;2022-09-12T06:46:16;13.30;99.90
16995;DHT22;8614;48.522;9.206;2022-09-12T06:48:43;13.40;99.90
16995;DHT22;8614;48.522;9.206;2022-09-12T06:51:12;13.60;99.90
16995;DHT22;8614;48.522;9.206;2022-09-12T06:53:41;13.70;99.90
16995;DHT22;8614;48.522;9.206;2022-09-12T06:56:10;13.80;99.90
16995;DHT22;8614;48.522;9.206;2022-09-12T06:58:37;13.80;99.90
16995;DHT22;8614;48.522;9.206;2022-09-12T07:01:06;13.80;99.90
16995;DHT22;8614;48.522;9.206;2022-09-12T07:03:35;14.00;99.90
16995;DHT22;8614;48.522;9.206;2022-09-12T07:06:03;14.20;99.90
16995;DHT22;8614;48.522;9.206;2022-09-12T07:08:31;14.40;99.90
16995;DHT22;8614;48.522;9.206;2022-09-12T07:10:59;14.50;99.90
16995;DHT22;8614;48.522;9.206;2022-09-12T07:13:27;14.60;99.90
16995;DHT22;8614;48.522;9.206;2022-09-12T07:15:54;14.60;99.90
16995;DHT22;8614;48.522;9.206;2022-09-12T07:18:30;14.60;99.90
16995;DHT22;8614;48.522;9.206;2022-09-12T07:21:00;14.70;99.90
16995;DHT22;8614;48.522;9.206;2022-09-12T07:23:27;14.90;99.90
16995;DHT22;8614;48.522;9.206;2022-09-12T07:25:54;14.80;99.90
16995;DHT22;8614;48.522;9.206;2022-09-12T07:28:21;14.90;99.90
16995;DHT22;8614;48.522;9.206;2022-09-12T07:30:49;15.00;99.90
16995;DHT22;8614;48.522;9.206;2022-09-12T07:33:18;15.20;99.90
16995;DHT22;8614;48.522;9.206;2022-09-12T07:35:45;15.30;99.90
16995;DHT22;8614;48.522;9.206;2022-09-12T07:38:13;15.40;99.90
16995;DHT22;8614;48.522;9.206;2022-09-12T07:40:40;15.50;99.90
16995;DHT22;8614;48.522;9.206;2022-09-12T07:43:07;15.60;99.90
16995;DHT22;8614;48.522;9.206;2022-09-12T07:45:34;15.90;99.90
16995;DHT22;8614;48.522;9.206;2022-09-12T07:48:01;16.70;99.90
16995;DHT22;8614;48.522;9.206;2022-09-12T07:50:28;17.20;99.90
16995;DHT22;8614;48.522;9.206;2022-09-12T07:52:55;17.70;99.90
16995;DHT22;8614;48.522;9.206;2022-09-12T07:55:23;18.30;99.90
16995;DHT22;8614;48.522;9.206;2022-09-12T07:57:50;18.80;99.90
16995;DHT22;8614;48.522;9.206;2022-09-12T08:00:17;19.20;99.90
16995;DHT22;8614;48.522;9.206;2022-09-12T08:02:49;19.50;99.90
16995;DHT22;8614;48.522;9.206;2022-09-12T08:05:16;19.80;99.90
16995;DHT22;8614;48.522;9.206;2022-09-12T08:07:42;20.00;99.90
16995;DHT22;8614;48.522;9.206;2022-09-12T08:10:09;20.00;99.90
16995;DHT22;8614;48.522;9.206;2022-09-12T08:12:37;20.40;99.90
16995;DHT22;8614;48.522;9.206;2022-09-12T08:15:05;20.60;99.90
16995;DHT22;8614;48.522;9.206;2022-09-12T08:17:33;20.60;99.90
16995;DHT22;8614;48.522;9.206;2022-09-12T08:20:00;20.60;99.90
16995;DHT22;8614;48.522;9.206;2022-09-12T08:22:29;20.30;99.90
16995;DHT22;8614;48.522;9.206;2022-09-12T08:24:56;20.40;99.90
16995;DHT22;8614;48.522;9.206;2022-09-12T08:27:23;20.90;99.90
16995;DHT22;8614;48.522;9.206;2022-09-12T08:29:51;21.10;99.90
16995;DHT22;8614;48.522;9.206;2022-09-12T08:32:18;21.20;99.90
16995;DHT22;8614;48.522;9.206;2022-09-12T08:34:45;21.40;99.90
16995;DHT22;8614;48.522;9.206;2022-09-12T08:37:11;21.40;99.90
16995;DHT22;8614;48.522;9.206;2022-09-12T08:39:38;21.60;99.90
16995;DHT22;8614;48.522;9.206;2022-09-12T08:42:05;21.60;99.90
16995;DHT22;8614;48.522;9.206;2022-09-12T08:44:51;21.60;99.90
16995;DHT22;8614;48.522;9.206;2022-09-12T08:47:25;22.10;99.90
16995;DHT22;8614;48.522;9.206;2022-09-12T08:49:58;22.20;99.90
16995;DHT22;8614;48.522;9.206;2022-09-12T08:52:28;22.40;99.90
16995;DHT22;8614;48.522;9.206;2022-09-12T08:54:56;22.40;99.90
16995;DHT22;8614;48.522;9.206;2022-09-12T08:57:23;22.50;99.90
16995;DHT22;8614;48.522;9.206;2022-09-12T08:59:51;22.70;99.90
16995;DHT22;8614;48.522;9.206;2022-09-12T09:02:39;23.00;99.90
16995;DHT22;8614;48.522;9.206;2022-09-12T09:05:16;23.10;99.90
16995;DHT22;8614;48.522;9.206;2022-09-12T09:08:09;22.80;99.90
16995;DHT22;8614;48.522;9.206;2022-09-12T09:10:46;22.90;99.90
16995;DHT22;8614;48.522;9.206;2022-09-12T09:13:23;23.10;99.90
16995;DHT22;8614;48.522;9.206;2022-09-12T09:16:18;23.20;99.90
16995;DHT22;8614;48.522;9.206;2022-09-12T09:18:48;23.70;99.90
16995;DHT22;8614;48.522;9.206;2022-09-12T09:21:22;24.00;99.90
16995;DHT22;8614;48.522;9.206;2022-09-12T09:23:54;24.10;99.90
16995;DHT22;8614;48.522;9.206;2022-09-12T09:26:28;24.00;99.90
16995;DHT22;8614;48.522;9.206;2022-09-12T09:29:01;24.40;99.90
16995;DHT22;8614;48.522;9.206;2022-09-12T09:31:36;24.70;99.90
16995;DHT22;8614;48.522;9.206;2022-09-12T09:34:08;24.30;99.90
16995;DHT22;8614;48.522;9.206;2022-09-12T09:36:44;24.50;99.90
16995;DHT22;8614;48.522;9.206;2022-09-12T09:39:21;24.80;99.90
16995;DHT22;8614;48.522;9.206;2022-09-12T09:42:07;24.80;99.90
16995;DHT22;8614;48.522;9.206;2022-09-12T09:44:37;24.50;99.90
16995;DHT22;8614;48.522;9.206;2022-09-12T09:47:08;24.30;99.90
16995;DHT22;8614;48.522;9.206;2022-09-12T09:49:36;23.80;99.90
16995;DHT22;8614;48.522;9.206;2022-09-12T09:52:05;23.80;99.90
16995;DHT22;8614;48.522;9.206;2022-09-12T09:54:35;23.70;99.90
16995;DHT22;8614;48.522;9.206;2022-09-12T09:57:03;23.80;99.90
16995;DHT22;8614;48.522;9.206;2022-09-12T09:59:31;23.80;99.90
16995;DHT22;8614;48.522;9.206;2022-09-12T10:02:02;23.70;99.90
16995;DHT22;8614;48.522;9.206;2022-09-12T10:04:32;23.50;99.90
16995;DHT22;8614;48.522;9.206;2022-09-12T10:07:01;23.50;99.90
16995;DHT22;8614;48.522;9.206;2022-09-12T10:09:29;23.40;99.90
16995;DHT22;8614;48.522;9.206;2022-09-12T10:11:58;23.50;99.90
16995;DHT22;8614;48.522;9.206;2022-09-12T10:14:30;23.60;99.90
16995;DHT22;8614;48.522;9.206;2022-09-12T10:16:57;23.80;99.90
16995;DHT22;8614;48.522;9.206;2022-09-12T10:19:34;23.60;99.90
16995;DHT22;8614;48.522;9.206;2022-09-12T10:22:02;23.50;99.90
16995;DHT22;8614;48.522;9.206;2022-09-12T10:24:34;23.40;99.90
16995;DHT22;8614;48.522;9.206;2022-09-12T10:27:13;23.40;99.90
16995;DHT22;8614;48.522;9.206;2022-09-12T10:29:43;23.30;99.90
16995;DHT22;8614;48.522;9.206;2022-09-12T10:32:19;23.40;99.90
16995;DHT22;8614;48.522;9.206;2022-09-12T10:34:53;23.40;99.90
16995;DHT22;8614;48.522;9.206;2022-09-12T10:37:24;23.30;99.90
16995;DHT22;8614;48.522;9.206;2022-09-12T10:39:54;23.30;99.90
16995;DHT22;8614;48.522;9.206;2022-09-12T10:42:40;23.30;99.90
16995;DHT22;8614;48.522;9.206;2022-09-12T10:45:17;23.30;99.90
16995;DHT22;8614;48.522;9.206;2022-09-12T10:47:45;23.20;99.90
16995;DHT22;8614;48.522;9.206;2022-09-12T10:50:28;23.20;99.90
16995;DHT22;8614;48.522;9.206;2022-09-12T10:53:13;23.20;99.90
16995;DHT22;8614;48.522;9.206;2022-09-12T10:55:46;23.20;99.90
16995;DHT22;8614;48.522;9.206;2022-09-12T10:58:29;23.10;99.90
16995;DHT22;8614;48.522;9.206;2022-09-12T11:01:06;23.10;99.90
16995;DHT22;8614;48.522;9.206;2022-09-12T11:03:52;23.20;99.90
16995;DHT22;8614;48.522;9.206;2022-09-12T11:06:34;23.30;99.90
16995;DHT22;8614;48.522;9.206;2022-09-12T11:09:05;23.50;99.90
16995;DHT22;8614;48.522;9.206;2022-09-12T11:11:47;23.50;99.90
16995;DHT22;8614;48.522;9.206;2022-09-12T11:14:37;23.10;99.90
16995;DHT22;8614;48.522;9.206;2022-09-12T11:17:18;22.90;99.90
16995;DHT22;8614;48.522;9.206;2022-09-12T11:20:02;23.10;99.90
16995;DHT22;8614;48.522;9.206;2022-09-12T11:22:44;23.10;99.90
16995;DHT22;8614;48.522;9.206;2022-09-12T11:25:27;23.20;99.90
16995;DHT22;8614;48.522;9.206;2022-09-12T11:28:13;23.30;99.90
16995;DHT22;8614;48.522;9.206;2022-09-12T11:30:51;23.30;99.90
16995;DHT22;8614;48.522;9.206;2022-09-12T11:33:31;23.30;99.90
16995;DHT22;8614;48.522;9.206;2022-09-12T11:36:07;23.30;99.90
16995;DHT22;8614;48.522;9.206;2022-09-12T11:38:49;23.30;99.90
16995;DHT22;8614;48.522;9.206;2022-09-12T11:41:22;23.30;99.90
16995;DHT22;8614;48.522;9.206;2022-09-12T11:43:53;23.30;99.90
16995;DHT22;8614;48.522;9.206;2022-09-12T11:46:24;23.30;99.90
16995;DHT22;8614;48.522;9.206;2022-09-12T11:48:58;23.20;99.90
16995;DHT22;8614;48.522;9.206;2022-09-12T11:51:27;23.10;99.90
16995;DHT22;8614;48.522;9.206;2022-09-12T11:54:11;23.10;99.90
16995;DHT22;8614;48.522;9.206;2022-09-12T11:56:44;23.00;99.90
16995;DHT22;8614;48.522;9.206;2022-09-12T11:59:14;23.10;99.90
16995;DHT22;8614;48.522;9.206;2022-09-12T12:01:44;23.20;99.90
16995;DHT22;8614;48.522;9.206;2022-09-12T12:04:15;23.30;99.90
16995;DHT22;8614;48.522;9.206;2022-09-12T12:06:48;23.30;99.90
16995;DHT22;8614;48.522;9.206;2022-09-12T12:09:18;23.30;99.90
16995;DHT22;8614;48.522;9.206;2022-09-12T12:11:49;23.20;99.90
16995;DHT22;8614;48.522;9.206;2022-09-12T12:14:20;23.30;99.90
16995;DHT22;8614;48.522;9.206;2022-09-12T12:16:49;23.10;99.90
16995;DHT22;8614;48.522;9.206;2022-09-12T12:19:31;23.10;99.90
16995;DHT22;8614;48.522;9.206;2022-09-12T12:22:07;23.20;99.90
16995;DHT22;8614;48.522;9.206;2022-09-12T12:24:53;23.10;99.90
16995;DHT22;8614;48.522;9.206;2022-09-12T12:27:24;23.00;99.90
16995;DHT22;8614;48.522;9.206;2022-09-12T12:33:51;23.00;99.90
16995;DHT22;8614;48.522;9.206;2022-09-12T12:36:37;23.00;99.90
16995;DHT22;8614;48.522;9.206;2022-09-12T12:45:59;23.20;99.90
16995;DHT22;8614;48.522;9.206;2022-09-12T12:48:32;23.30;99.90
16995;DHT22;8614;48.522;9.206;2022-09-12T12:51:26;23.20;99.90
16995;DHT22;8614;48.522;9.206;2022-09-12T12:53:54;23.30;99.90
16995;DHT22;8614;48.522;9.206;2022-09-12T12:56:37;23.30;99.90
16995;DHT22;8614;48.522;9.206;2022-09-12T12:59:15;23.30;99.90
16995;DHT22;8614;48.522;9.206;2022-09-12T13:01:51;23.20;99.90
16995;DHT22;8614;48.522;9.206;2022-09-12T13:04:23;23.20;99.90
16995;DHT22;8614;48.522;9.206;2022-09-12T13:06:56;23.20;99.90
16995;DHT22;8614;48.522;9.206;2022-09-12T13:09:27;23.20;99.90
16995;DHT22;8614;48.522;9.206;2022-09-12T13:11:59;23.20;99.90
16995;DHT22;8614;48.522;9.206;2022-09-12T13:17:22;23.20;99.90
16995;DHT22;8614;48.522;9.206;2022-09-12T13:19:51;23.10;99.90
16995;DHT22;8614;48.522;9.206;2022-09-12T13:22:21;23.10;99.90
16995;DHT22;8614;48.522;9.206;2022-09-12T13:24:49;23.20;99.90
16995;DHT22;8614;48.522;9.206;2022-09-12T13:27:18;23.10;99.90
16995;DHT22;8614;48.522;9.206;2022-09-12T13:29:46;23.10;99.90
16995;DHT22;8614;48.522;9.206;2022-09-12T13:32:13;23.20;99.90
16995;DHT22;8614;48.522;9.206;2022-09-12T13:34:54;23.20;99.90
16995;DHT22;8614;48.522;9.206;2022-09-12T13:37:42;23.20;99.90
16995;DHT22;8614;48.522;9.206;2022-09-12T13:40:29;23.20;99.90
16995;DHT22;8614;48.522;9.206;2022-09-12T13:43:11;23.20;99.90
16995;DHT22;8614;48.522;9.206;2022-09-12T13:45:40;23.20;99.90
16995;DHT22;8614;48.522;9.206;2022-09-12T13:48:13;23.30;99.90
16995;DHT22;8614;48.522;9.206;2022-09-12T13:50:51;23.20;99.90
16995;DHT22;8614;48.522;9.206;2022-09-12T13:53:21;23.20;99.90
16995;DHT22;8614;48.522;9.206;2022-09-12T13:55:52;23.20;99.90
16995;DHT22;8614;48.522;9.206;2022-09-12T13:58:21;23.20;99.90
16995;DHT22;8614;48.522;9.206;2022-09-12T14:01:00;23.30;99.90
16995;DHT22;8614;48.522;9.206;2022-09-12T14:03:28;23.20;99.90
16995;DHT22;8614;48.522;9.206;2022-09-12T14:06:15;23.20;99.90
16995;DHT22;8614;48.522;9.206;2022-09-12T14:08:44;23.20;99.90
16995;DHT22;8614;48.522;9.206;2022-09-12T14:11:22;23.20;99.90
16995;DHT22;8614;48.522;9.206;2022-09-12T14:13:49;23.30;99.90
16995;DHT22;8614;48.522;9.206;2022-09-12T14:16:17;23.30;99.90
16995;DHT22;8614;48.522;9.206;2022-09-12T14:18:46;23.30;99.90
16995;DHT22;8614;48.522;9.206;2022-09-12T14:21:28;23.30;99.90
16995;DHT22;8614;48.522;9.206;2022-09-12T14:23:57;23.30;99.90
16995;DHT22;8614;48.522;9.206;2022-09-12T14:26:25;23.40;99.90
16995;DHT22;8614;48.522;9.206;2022-09-12T14:28:53;23.40;99.90
16995;DHT22;8614;48.522;9.206;2022-09-12T14:31:23;23.50;99.90
16995;DHT22;8614;48.522;9.206;2022-09-12T14:33:52;23.40;99.90
16995;DHT22;8614;48.522;9.206;2022-09-12T14:36:27;23.40;99.90
16995;DHT22;8614;48.522;9.206;2022-09-12T14:38:57;23.40;99.90
16995;DHT22;8614;48.522;9.206;2022-09-12T14:41:28;23.40;99.90
16995;DHT22;8614;48.522;9.206;2022-09-12T14:43:58;23.40;99.90
16995;DHT22;8614;48.522;9.206;2022-09-12T14:46:29;23.40;99.90
16995;DHT22;8614;48.522;9.206;2022-09-12T14:49:00;23.40;99.90
16995;DHT22;8614;48.522;9.206;2022-09-12T14:51:36;23.40;99.90
16995;DHT22;8614;48.522;9.206;2022-09-12T14:54:03;23.30;99.90
16995;DHT22;8614;48.522;9.206;2022-09-12T14:56:39;23.30;99.90
16995;DHT22;8614;48.522;9.206;2022-09-12T14:59:25;23.30;99.90
16995;DHT22;8614;48.522;9.206;2022-09-12T15:02:16;23.30;99.90
16995;DHT22;8614;48.522;9.206;2022-09-12T15:04:46;23.20;99.90
16995;DHT22;8614;48.522;9.206;2022-09-12T15:07:17;23.20;99.90
16995;DHT22;8614;48.522;9.206;2022-09-12T15:09:47;23.10;99.90
16995;DHT22;8614;48.522;9.206;2022-09-12T15:12:14;23.10;99.90
16995;DHT22;8614;48.522;9.206;2022-09-12T15:14:40;23.10;99.90
16995;DHT22;8614;48.522;9.206;2022-09-12T15:17:07;23.20;99.90
16995;DHT22;8614;48.522;9.206;2022-09-12T15:19:34;23.20;99.90
16995;DHT22;8614;48.522;9.206;2022-09-12T15:22:01;23.20;99.90
16995;DHT22;8614;48.522;9.206;2022-09-12T15:24:29;23.20;99.90
16995;DHT22;8614;48.522;9.206;2022-09-12T15:26:56;23.20;99.90
16995;DHT22;8614;48.522;9.206;2022-09-12T15:29:23;23.10;99.90
16995;DHT22;8614;48.522;9.206;2022-09-12T15:31:50;23.10;99.90
16995;DHT22;8614;48.522;9.206;2022-09-12T15:34:17;23.10;99.90
16995;DHT22;8614;48.522;9.206;2022-09-12T15:36:44;23.20;99.90
16995;DHT22;8614;48.522;9.206;2022-09-12T15:39:11;23.20;99.90
16995;DHT22;8614;48.522;9.206;2022-09-12T15:41:39;23.20;99.90
16995;DHT22;8614;48.522;9.206;2022-09-12T15:44:09;23.20;99.90
16995;DHT22;8614;48.522;9.206;2022-09-12T15:46:37;23.20;99.90
16995;DHT22;8614;48.522;9.206;2022-09-12T15:49:04;23.20;99.90
16995;DHT22;8614;48.522;9.206;2022-09-12T15:51:31;23.10;99.90
16995;DHT22;8614;48.522;9.206;2022-09-12T15:53:59;23.20;99.90
16995;DHT22;8614;48.522;9.206;2022-09-12T15:56:27;23.20;99.90
16995;DHT22;8614;48.522;9.206;2022-09-12T15:58:55;23.20;99.90
16995;DHT22;8614;48.522;9.206;2022-09-12T16:01:22;23.20;99.90
16995;DHT22;8614;48.522;9.206;2022-09-12T16:03:48;23.20;99.90
16995;DHT22;8614;48.522;9.206;2022-09-12T16:06:15;23.10;99.90
16995;DHT22;8614;48.522;9.206;2022-09-12T16:08:42;23.10;99.90
16995;DHT22;8614;48.522;9.206;2022-09-12T16:11:12;23.10;99.90
16995;DHT22;8614;48.522;9.206;2022-09-12T16:13:42;23.00;99.90
16995;DHT22;8614;48.522;9.206;2022-09-12T16:16:10;23.00;99.90
16995;DHT22;8614;48.522;9.206;2022-09-12T16:18:38;23.00;99.90
16995;DHT22;8614;48.522;9.206;2022-09-12T16:21:05;22.80;99.90
16995;DHT22;8614;48.522;9.206;2022-09-12T16:23:32;22.80;99.90
16995;DHT22;8614;48.522;9.206;2022-09-12T16:26:00;22.90;99.90
16995;DHT22;8614;48.522;9.206;2022-09-12T16:28:27;22.80;99.90
16995;DHT22;8614;48.522;9.206;2022-09-12T16:30:54;22.80;99.90
16995;DHT22;8614;48.522;9.206;2022-09-12T16:33:25;22.70;99.90
16995;DHT22;8614;48.522;9.206;2022-09-12T16:35:52;22.70;99.90
16995;DHT22;8614;48.522;9.206;2022-09-12T16:38:20;22.60;99.90